sensor_id;sensor_type;location;lat;lon;timestamp;P1;durP1;ratioP1;P2;durP2;ratioP2
19889;SDS011;10107;51.198;6.824;2023-05-10T00:01:42;7.70;;;5.20;;
19889;SDS011;10107;51.198;6.824;2023-05-10T00:05:43;10.30;;;7.45;;
19889;SDS011;10107;51.198;6.824;2023-05-10T00:09:45;10.82;;;7.63;;
19889;SDS011;10107;51.198;6.824;2023-05-10T00:13:48;14.07;;;9.10;;
19889;SDS011;10107;51.198;6.824;2023-05-10T00:17:50;13.70;;;8.95;;
19889;SDS011;10107;51.198;6.824;2023-05-10T00:21:52;12.43;;;8.30;;
19889;SDS011;10107;51.198;6.824;2023-05-10T00:25:53;15.15;;;9.20;;
19889;SDS011;10107;51.198;6.824;2023-05-10T00:29:58;13.23;;;9.13;;
19889;SDS011;10107;51.198;6.824;2023-05-10T00:33:59;15.35;;;10.30;;
19889;SDS011;10107;51.198;6.824;2023-05-10T00:38:01;14.05;;;9.25;;
19889;SDS011;10107;51.198;6.824;2023-05-10T00:42:03;15.05;;;9.63;;
19889;SDS011;10107;51.198;6.824;2023-05-10T00:46:07;16.58;;;9.90;;
19889;SDS011;10107;51.198;6.824;2023-05-10T00:50:09;13.30;;;8.68;;
19889;SDS011;10107;51.198;6.824;2023-05-10T00:54:14;13.95;;;8.85;;
19889;SDS011;10107;51.198;6.824;2023-05-10T00:58:16;11.93;;;8.18;;
19889;SDS011;10107;51.198;6.824;2023-05-10T01:02:19;13.55;;;9.10;;
19889;SDS011;10107;51.198;6.824;2023-05-10T01:06:21;14.57;;;8.87;;
19889;SDS011;10107;51.198;6.824;2023-05-10T01:10:23;11.30;;;7.70;;
19889;SDS011;10107;51.198;6.824;2023-05-10T01:14:25;8.90;;;6.28;;
19889;SDS011;10107;51.198;6.824;2023-05-10T01:18:29;6.77;;;4.77;;
19889;SDS011;10107;51.198;6.824;2023-05-10T01:22:45;7.10;;;5.22;;
19889;SDS011;10107;51.198;6.824;2023-05-10T01:31:58;8.05;;;5.72;;
19889;SDS011;10107;51.198;6.824;2023-05-10T01:36:09;7.82;;;5.68;;
19889;SDS011;10107;51.198;6.824;2023-05-10T01:40:19;10.55;;;6.57;;
19889;SDS011;10107;51.198;6.824;2023-05-10T01:44:34;7.03;;;5.43;;
19889;SDS011;10107;51.198;6.824;2023-05-10T01:48:42;9.43;;;6.38;;
19889;SDS011;10107;51.198;6.824;2023-05-10T01:52:50;7.65;;;5.60;;
19889;SDS011;10107;51.198;6.824;2023-05-10T01:56:56;7.70;;;5.35;;
19889;SDS011;10107;51.198;6.824;2023-05-10T02:01:04;7.93;;;5.65;;
19889;SDS011;10107;51.198;6.824;2023-05-10T02:05:09;7.68;;;5.68;;
19889;SDS011;10107;51.198;6.824;2023-05-10T02:09:13;7.45;;;5.53;;
19889;SDS011;10107;51.198;6.824;2023-05-10T02:17:19;8.32;;;6.07;;
19889;SDS011;10107;51.198;6.824;2023-05-10T02:21:24;8.05;;;5.60;;
19889;SDS011;10107;51.198;6.824;2023-05-10T02:25:29;8.20;;;5.70;;
19889;SDS011;10107;51.198;6.824;2023-05-10T02:29:34;9.05;;;6.20;;
19889;SDS011;10107;51.198;6.824;2023-05-10T02:33:38;8.13;;;5.53;;
19889;SDS011;10107;51.198;6.824;2023-05-10T02:37:42;8.48;;;6.15;;
19889;SDS011;10107;51.198;6.824;2023-05-10T02:41:46;7.95;;;5.70;;
19889;SDS011;10107;51.198;6.824;2023-05-10T02:45:51;11.88;;;6.57;;
19889;SDS011;10107;51.198;6.824;2023-05-10T02:49:54;10.55;;;6.88;;
19889;SDS011;10107;51.198;6.824;2023-05-10T02:53:57;9.45;;;6.38;;
19889;SDS011;10107;51.198;6.824;2023-05-10T02:58:02;8.18;;;5.63;;
19889;SDS011;10107;51.198;6.824;2023-05-10T03:02:05;8.55;;;6.13;;
19889;SDS011;10107;51.198;6.824;2023-05-10T03:06:07;8.73;;;6.30;;
19889;SDS011;10107;51.198;6.824;2023-05-10T03:10:11;8.73;;;5.72;;
19889;SDS011;10107;51.198;6.824;2023-05-10T03:14:17;9.63;;;6.88;;
19889;SDS011;10107;51.198;6.824;2023-05-10T03:18:28;7.78;;;5.13;;
19889;SDS011;10107;51.198;6.824;2023-05-10T03:22:34;7.75;;;5.43;;
19889;SDS011;10107;51.198;6.824;2023-05-10T03:26:41;7.88;;;5.45;;
19889;SDS011;10107;51.198;6.824;2023-05-10T03:30:49;8.93;;;5.53;;
19889;SDS011;10107;51.198;6.824;2023-05-10T03:34:53;7.97;;;5.40;;
19889;SDS011;10107;51.198;6.824;2023-05-10T03:38:55;7.13;;;5.35;;
19889;SDS011;10107;51.198;6.824;2023-05-10T03:42:58;8.55;;;5.53;;
19889;SDS011;10107;51.198;6.824;2023-05-10T03:47:00;9.52;;;6.40;;
19889;SDS011;10107;51.198;6.824;2023-05-10T03:51:02;7.40;;;5.20;;
19889;SDS011;10107;51.198;6.824;2023-05-10T03:55:04;7.70;;;5.63;;
19889;SDS011;10107;51.198;6.824;2023-05-10T03:59:09;9.55;;;6.65;;
19889;SDS011;10107;51.198;6.824;2023-05-10T04:03:11;12.00;;;6.80;;
19889;SDS011;10107;51.198;6.824;2023-05-10T04:07:12;10.45;;;6.47;;
19889;SDS011;10107;51.198;6.824;2023-05-10T04:11:14;10.95;;;6.60;;
19889;SDS011;10107;51.198;6.824;2023-05-10T04:15:17;15.57;;;9.77;;
19889;SDS011;10107;51.198;6.824;2023-05-10T04:19:19;13.07;;;8.32;;
19889;SDS011;10107;51.198;6.824;2023-05-10T04:23:21;11.38;;;7.88;;
19889;SDS011;10107;51.198;6.824;2023-05-10T04:27:22;12.60;;;7.72;;
19889;SDS011;10107;51.198;6.824;2023-05-10T04:31:25;13.20;;;7.65;;
19889;SDS011;10107;51.198;6.824;2023-05-10T04:35:28;15.18;;;9.20;;
19889;SDS011;10107;51.198;6.824;2023-05-10T04:39:29;17.55;;;10.25;;
19889;SDS011;10107;51.198;6.824;2023-05-10T04:43:31;22.08;;;12.15;;
19889;SDS011;10107;51.198;6.824;2023-05-10T04:47:34;21.55;;;12.43;;
19889;SDS011;10107;51.198;6.824;2023-05-10T04:51:37;21.52;;;12.02;;
19889;SDS011;10107;51.198;6.824;2023-05-10T04:55:38;22.02;;;12.98;;
19889;SDS011;10107;51.198;6.824;2023-05-10T04:59:40;24.80;;;14.85;;
19889;SDS011;10107;51.198;6.824;2023-05-10T05:03:44;20.00;;;12.32;;
19889;SDS011;10107;51.198;6.824;2023-05-10T05:07:45;21.80;;;12.65;;
19889;SDS011;10107;51.198;6.824;2023-05-10T05:11:47;22.23;;;13.05;;
19889;SDS011;10107;51.198;6.824;2023-05-10T05:15:49;20.30;;;12.63;;
19889;SDS011;10107;51.198;6.824;2023-05-10T05:19:52;16.50;;;10.93;;
19889;SDS011;10107;51.198;6.824;2023-05-10T05:23:53;22.13;;;13.87;;
19889;SDS011;10107;51.198;6.824;2023-05-10T05:27:55;24.42;;;15.02;;
19889;SDS011;10107;51.198;6.824;2023-05-10T05:31:57;18.45;;;12.73;;
19889;SDS011;10107;51.198;6.824;2023-05-10T05:36:01;23.58;;;15.27;;
19889;SDS011;10107;51.198;6.824;2023-05-10T05:40:03;21.60;;;13.98;;
19889;SDS011;10107;51.198;6.824;2023-05-10T05:44:05;20.88;;;13.38;;
19889;SDS011;10107;51.198;6.824;2023-05-10T05:48:07;19.00;;;12.60;;
19889;SDS011;10107;51.198;6.824;2023-05-10T05:52:10;17.65;;;11.13;;
19889;SDS011;10107;51.198;6.824;2023-05-10T05:56:12;19.85;;;12.07;;
19889;SDS011;10107;51.198;6.824;2023-05-10T06:00:14;14.80;;;9.75;;
19889;SDS011;10107;51.198;6.824;2023-05-10T06:04:16;18.23;;;10.88;;
19889;SDS011;10107;51.198;6.824;2023-05-10T06:08:19;17.88;;;12.02;;
19889;SDS011;10107;51.198;6.824;2023-05-10T06:12:21;22.07;;;13.37;;
19889;SDS011;10107;51.198;6.824;2023-05-10T06:16:23;17.40;;;10.95;;
19889;SDS011;10107;51.198;6.824;2023-05-10T06:20:24;18.58;;;10.80;;
19889;SDS011;10107;51.198;6.824;2023-05-10T06:24:27;21.95;;;12.43;;
19889;SDS011;10107;51.198;6.824;2023-05-10T06:28:29;18.97;;;12.03;;
19889;SDS011;10107;51.198;6.824;2023-05-10T06:32:32;21.73;;;12.65;;
19889;SDS011;10107;51.198;6.824;2023-05-10T06:36:34;19.98;;;11.50;;
19889;SDS011;10107;51.198;6.824;2023-05-10T06:40:36;17.10;;;11.63;;
19889;SDS011;10107;51.198;6.824;2023-05-10T06:44:41;18.90;;;11.20;;
19889;SDS011;10107;51.198;6.824;2023-05-10T06:48:43;22.13;;;12.57;;
19889;SDS011;10107;51.198;6.824;2023-05-10T06:52:45;20.08;;;11.48;;
19889;SDS011;10107;51.198;6.824;2023-05-10T06:56:48;17.98;;;11.23;;
19889;SDS011;10107;51.198;6.824;2023-05-10T07:00:49;25.60;;;12.30;;
19889;SDS011;10107;51.198;6.824;2023-05-10T07:04:51;24.05;;;11.23;;
19889;SDS011;10107;51.198;6.824;2023-05-10T07:08:53;18.02;;;9.95;;
19889;SDS011;10107;51.198;6.824;2023-05-10T07:12:56;17.65;;;11.45;;
19889;SDS011;10107;51.198;6.824;2023-05-10T07:16:57;14.27;;;8.43;;
19889;SDS011;10107;51.198;6.824;2023-05-10T07:20:59;23.95;;;11.57;;
19889;SDS011;10107;51.198;6.824;2023-05-10T07:25:01;22.40;;;12.57;;
19889;SDS011;10107;51.198;6.824;2023-05-10T07:29:04;20.20;;;10.93;;
19889;SDS011;10107;51.198;6.824;2023-05-10T07:33:05;12.30;;;6.55;;
19889;SDS011;10107;51.198;6.824;2023-05-10T07:37:07;17.73;;;10.30;;
19889;SDS011;10107;51.198;6.824;2023-05-10T07:41:09;15.40;;;9.32;;
19889;SDS011;10107;51.198;6.824;2023-05-10T07:45:12;14.52;;;9.48;;
19889;SDS011;10107;51.198;6.824;2023-05-10T07:49:13;17.17;;;8.93;;
19889;SDS011;10107;51.198;6.824;2023-05-10T07:53:15;13.30;;;8.35;;
19889;SDS011;10107;51.198;6.824;2023-05-10T07:57:18;9.02;;;5.88;;
19889;SDS011;10107;51.198;6.824;2023-05-10T08:01:21;17.50;;;10.80;;
19889;SDS011;10107;51.198;6.824;2023-05-10T08:05:23;20.65;;;12.07;;
19889;SDS011;10107;51.198;6.824;2023-05-10T08:09:25;26.40;;;14.80;;
19889;SDS011;10107;51.198;6.824;2023-05-10T08:13:27;25.50;;;14.15;;
19889;SDS011;10107;51.198;6.824;2023-05-10T08:17:30;25.33;;;15.27;;
19889;SDS011;10107;51.198;6.824;2023-05-10T08:21:31;20.23;;;11.40;;
19889;SDS011;10107;51.198;6.824;2023-05-10T08:25:33;32.03;;;17.25;;
19889;SDS011;10107;51.198;6.824;2023-05-10T08:29:35;33.35;;;17.73;;
19889;SDS011;10107;51.198;6.824;2023-05-10T08:33:37;35.10;;;19.02;;
19889;SDS011;10107;51.198;6.824;2023-05-10T08:37:39;34.20;;;19.40;;
19889;SDS011;10107;51.198;6.824;2023-05-10T08:41:41;32.75;;;17.40;;
19889;SDS011;10107;51.198;6.824;2023-05-10T08:45:45;33.28;;;19.00;;
19889;SDS011;10107;51.198;6.824;2023-05-10T08:49:48;29.23;;;16.75;;
19889;SDS011;10107;51.198;6.824;2023-05-10T08:53:51;29.30;;;16.95;;
19889;SDS011;10107;51.198;6.824;2023-05-10T08:57:54;31.48;;;18.08;;
19889;SDS011;10107;51.198;6.824;2023-05-10T09:01:57;31.52;;;17.40;;
19889;SDS011;10107;51.198;6.824;2023-05-10T09:06:00;26.60;;;15.65;;
19889;SDS011;10107;51.198;6.824;2023-05-10T09:10:03;26.33;;;15.35;;
19889;SDS011;10107;51.198;6.824;2023-05-10T09:14:06;32.33;;;16.87;;
19889;SDS011;10107;51.198;6.824;2023-05-10T09:18:09;29.67;;;15.68;;
19889;SDS011;10107;51.198;6.824;2023-05-10T09:22:12;23.20;;;13.68;;
19889;SDS011;10107;51.198;6.824;2023-05-10T09:26:14;18.10;;;10.30;;
19889;SDS011;10107;51.198;6.824;2023-05-10T09:30:16;23.90;;;13.27;;
19889;SDS011;10107;51.198;6.824;2023-05-10T09:34:28;19.92;;;12.32;;
19889;SDS011;10107;51.198;6.824;2023-05-10T09:38:32;16.38;;;10.52;;
19889;SDS011;10107;51.198;6.824;2023-05-10T09:42:51;15.70;;;10.80;;
19889;SDS011;10107;51.198;6.824;2023-05-10T09:46:55;19.02;;;11.55;;
19889;SDS011;10107;51.198;6.824;2023-05-10T09:50:57;20.63;;;11.98;;
19889;SDS011;10107;51.198;6.824;2023-05-10T09:55:00;20.60;;;12.95;;
19889;SDS011;10107;51.198;6.824;2023-05-10T09:59:02;17.37;;;10.70;;
19889;SDS011;10107;51.198;6.824;2023-05-10T10:03:04;18.58;;;11.77;;
19889;SDS011;10107;51.198;6.824;2023-05-10T10:07:06;17.67;;;11.05;;
19889;SDS011;10107;51.198;6.824;2023-05-10T10:11:09;19.20;;;10.60;;
19889;SDS011;10107;51.198;6.824;2023-05-10T10:15:11;13.40;;;8.77;;
19889;SDS011;10107;51.198;6.824;2023-05-10T10:19:13;18.05;;;10.52;;
19889;SDS011;10107;51.198;6.824;2023-05-10T10:23:16;14.90;;;9.97;;
19889;SDS011;10107;51.198;6.824;2023-05-10T10:27:21;17.42;;;11.57;;
19889;SDS011;10107;51.198;6.824;2023-05-10T10:31:31;17.48;;;11.05;;
19889;SDS011;10107;51.198;6.824;2023-05-10T10:35:38;16.13;;;11.07;;
19889;SDS011;10107;51.198;6.824;2023-05-10T10:39:40;11.45;;;7.43;;
19889;SDS011;10107;51.198;6.824;2023-05-10T10:43:43;14.50;;;9.32;;
19889;SDS011;10107;51.198;6.824;2023-05-10T10:47:45;15.50;;;9.93;;
19889;SDS011;10107;51.198;6.824;2023-05-10T10:56:17;12.15;;;8.18;;
19889;SDS011;10107;51.198;6.824;2023-05-10T11:00:26;15.50;;;9.65;;
19889;SDS011;10107;51.198;6.824;2023-05-10T11:04:33;13.70;;;8.95;;
19889;SDS011;10107;51.198;6.824;2023-05-10T11:08:43;14.30;;;8.10;;
19889;SDS011;10107;51.198;6.824;2023-05-10T11:12:51;14.00;;;9.05;;
19889;SDS011;10107;51.198;6.824;2023-05-10T11:16:55;14.27;;;9.35;;
19889;SDS011;10107;51.198;6.824;2023-05-10T11:20:57;13.83;;;8.07;;
19889;SDS011;10107;51.198;6.824;2023-05-10T11:25:03;17.63;;;10.45;;
19889;SDS011;10107;51.198;6.824;2023-05-10T11:29:07;17.50;;;11.95;;
19889;SDS011;10107;51.198;6.824;2023-05-10T11:33:14;17.42;;;10.93;;
19889;SDS011;10107;51.198;6.824;2023-05-10T11:37:17;17.85;;;11.57;;
19889;SDS011;10107;51.198;6.824;2023-05-10T11:41:19;12.30;;;9.10;;
19889;SDS011;10107;51.198;6.824;2023-05-10T11:45:23;12.30;;;8.13;;
19889;SDS011;10107;51.198;6.824;2023-05-10T11:49:26;18.70;;;12.90;;
19889;SDS011;10107;51.198;6.824;2023-05-10T11:53:28;15.80;;;9.80;;
19889;SDS011;10107;51.198;6.824;2023-05-10T11:57:31;13.80;;;9.52;;
19889;SDS011;10107;51.198;6.824;2023-05-10T12:01:33;14.35;;;9.10;;
19889;SDS011;10107;51.198;6.824;2023-05-10T12:05:36;14.35;;;10.20;;
19889;SDS011;10107;51.198;6.824;2023-05-10T12:09:42;13.95;;;9.75;;
19889;SDS011;10107;51.198;6.824;2023-05-10T12:13:44;13.00;;;8.60;;
19889;SDS011;10107;51.198;6.824;2023-05-10T12:17:47;15.93;;;11.50;;
19889;SDS011;10107;51.198;6.824;2023-05-10T12:21:51;16.23;;;10.65;;
19889;SDS011;10107;51.198;6.824;2023-05-10T12:25:52;17.20;;;11.13;;
19889;SDS011;10107;51.198;6.824;2023-05-10T12:29:54;18.38;;;12.27;;
19889;SDS011;10107;51.198;6.824;2023-05-10T12:33:56;16.00;;;10.70;;
19889;SDS011;10107;51.198;6.824;2023-05-10T12:37:59;15.55;;;10.77;;
19889;SDS011;10107;51.198;6.824;2023-05-10T12:42:00;16.88;;;11.05;;
19889;SDS011;10107;51.198;6.824;2023-05-10T12:46:05;19.80;;;13.40;;
19889;SDS011;10107;51.198;6.824;2023-05-10T12:50:08;23.38;;;14.70;;
19889;SDS011;10107;51.198;6.824;2023-05-10T12:54:12;22.13;;;14.50;;
19889;SDS011;10107;51.198;6.824;2023-05-10T12:58:14;18.70;;;12.57;;
19889;SDS011;10107;51.198;6.824;2023-05-10T13:02:15;13.95;;;10.52;;
19889;SDS011;10107;51.198;6.824;2023-05-10T13:06:18;14.10;;;10.32;;
19889;SDS011;10107;51.198;6.824;2023-05-10T13:10:21;16.65;;;12.43;;
19889;SDS011;10107;51.198;6.824;2023-05-10T13:14:24;15.30;;;10.57;;
19889;SDS011;10107;51.198;6.824;2023-05-10T13:18:26;20.30;;;13.45;;
19889;SDS011;10107;51.198;6.824;2023-05-10T13:22:28;22.00;;;15.18;;
19889;SDS011;10107;51.198;6.824;2023-05-10T13:26:32;19.92;;;13.85;;
19889;SDS011;10107;51.198;6.824;2023-05-10T13:30:33;19.20;;;13.57;;
19889;SDS011;10107;51.198;6.824;2023-05-10T13:34:35;21.83;;;15.00;;
19889;SDS011;10107;51.198;6.824;2023-05-10T13:38:37;17.70;;;12.05;;
19889;SDS011;10107;51.198;6.824;2023-05-10T13:42:40;20.30;;;13.32;;
19889;SDS011;10107;51.198;6.824;2023-05-10T13:46:41;10.87;;;7.87;;
19889;SDS011;10107;51.198;6.824;2023-05-10T13:50:43;13.55;;;9.82;;
19889;SDS011;10107;51.198;6.824;2023-05-10T13:54:45;14.85;;;9.55;;
19889;SDS011;10107;51.198;6.824;2023-05-10T13:58:48;11.10;;;8.07;;
19889;SDS011;10107;51.198;6.824;2023-05-10T14:02:50;10.57;;;7.80;;
19889;SDS011;10107;51.198;6.824;2023-05-10T14:06:52;10.82;;;8.13;;
19889;SDS011;10107;51.198;6.824;2023-05-10T14:10:53;12.18;;;8.20;;
19889;SDS011;10107;51.198;6.824;2023-05-10T14:14:57;12.23;;;8.00;;
19889;SDS011;10107;51.198;6.824;2023-05-10T14:18:59;12.63;;;8.03;;
19889;SDS011;10107;51.198;6.824;2023-05-10T14:23:01;11.07;;;7.18;;
19889;SDS011;10107;51.198;6.824;2023-05-10T14:27:03;11.77;;;7.97;;
19889;SDS011;10107;51.198;6.824;2023-05-10T14:31:07;9.07;;;6.88;;
19889;SDS011;10107;51.198;6.824;2023-05-10T14:35:09;12.17;;;7.87;;
19889;SDS011;10107;51.198;6.824;2023-05-10T14:39:10;12.23;;;8.25;;
19889;SDS011;10107;51.198;6.824;2023-05-10T14:43:12;10.90;;;7.38;;
19889;SDS011;10107;51.198;6.824;2023-05-10T14:47:15;10.43;;;7.20;;
19889;SDS011;10107;51.198;6.824;2023-05-10T14:51:17;10.63;;;7.00;;
19889;SDS011;10107;51.198;6.824;2023-05-10T14:55:21;11.38;;;7.70;;
19889;SDS011;10107;51.198;6.824;2023-05-10T14:59:23;11.02;;;7.55;;
19889;SDS011;10107;51.198;6.824;2023-05-10T15:03:26;12.82;;;8.25;;
19889;SDS011;10107;51.198;6.824;2023-05-10T15:07:28;12.17;;;7.60;;
19889;SDS011;10107;51.198;6.824;2023-05-10T15:11:31;11.65;;;7.68;;
19889;SDS011;10107;51.198;6.824;2023-05-10T15:15:33;9.98;;;7.10;;
19889;SDS011;10107;51.198;6.824;2023-05-10T15:19:36;9.40;;;6.50;;
19889;SDS011;10107;51.198;6.824;2023-05-10T15:23:37;8.27;;;4.77;;
19889;SDS011;10107;51.198;6.824;2023-05-10T15:27:39;9.65;;;6.13;;
19889;SDS011;10107;51.198;6.824;2023-05-10T15:31:41;10.90;;;6.93;;
19889;SDS011;10107;51.198;6.824;2023-05-10T15:35:44;7.90;;;5.57;;
19889;SDS011;10107;51.198;6.824;2023-05-10T15:39:45;9.67;;;6.20;;
19889;SDS011;10107;51.198;6.824;2023-05-10T15:43:48;7.43;;;5.40;;
19889;SDS011;10107;51.198;6.824;2023-05-10T15:47:50;5.68;;;4.60;;
19889;SDS011;10107;51.198;6.824;2023-05-10T15:51:53;7.47;;;5.15;;
19889;SDS011;10107;51.198;6.824;2023-05-10T15:55:55;9.10;;;6.17;;
19889;SDS011;10107;51.198;6.824;2023-05-10T15:59:56;8.77;;;5.80;;
19889;SDS011;10107;51.198;6.824;2023-05-10T16:03:58;7.93;;;5.28;;
19889;SDS011;10107;51.198;6.824;2023-05-10T16:08:01;6.47;;;4.53;;
19889;SDS011;10107;51.198;6.824;2023-05-10T16:12:03;9.00;;;5.85;;
19889;SDS011;10107;51.198;6.824;2023-05-10T16:16:05;5.55;;;4.32;;
19889;SDS011;10107;51.198;6.824;2023-05-10T16:20:08;8.03;;;5.70;;
19889;SDS011;10107;51.198;6.824;2023-05-10T16:24:11;8.00;;;5.78;;
19889;SDS011;10107;51.198;6.824;2023-05-10T16:28:13;7.90;;;5.20;;
19889;SDS011;10107;51.198;6.824;2023-05-10T16:32:15;7.10;;;5.18;;
19889;SDS011;10107;51.198;6.824;2023-05-10T16:36:16;7.32;;;4.65;;
19889;SDS011;10107;51.198;6.824;2023-05-10T16:40:19;5.20;;;4.32;;
19889;SDS011;10107;51.198;6.824;2023-05-10T16:44:21;5.03;;;3.45;;
19889;SDS011;10107;51.198;6.824;2023-05-10T16:48:23;3.90;;;2.47;;
19889;SDS011;10107;51.198;6.824;2023-05-10T16:52:25;2.50;;;2.30;;
19889;SDS011;10107;51.198;6.824;2023-05-10T16:56:28;1.80;;;1.67;;
19889;SDS011;10107;51.198;6.824;2023-05-10T17:00:29;1.40;;;1.13;;
19889;SDS011;10107;51.198;6.824;2023-05-10T17:04:31;2.22;;;1.65;;
19889;SDS011;10107;51.198;6.824;2023-05-10T17:08:33;2.72;;;1.50;;
19889;SDS011;10107;51.198;6.824;2023-05-10T17:12:36;1.85;;;1.30;;
19889;SDS011;10107;51.198;6.824;2023-05-10T17:16:38;2.17;;;1.70;;
19889;SDS011;10107;51.198;6.824;2023-05-10T17:20:42;2.20;;;1.65;;
19889;SDS011;10107;51.198;6.824;2023-05-10T17:24:44;2.30;;;1.77;;
19889;SDS011;10107;51.198;6.824;2023-05-10T17:28:47;2.00;;;1.40;;
19889;SDS011;10107;51.198;6.824;2023-05-10T17:32:49;1.20;;;1.10;;
19889;SDS011;10107;51.198;6.824;2023-05-10T17:36:50;2.28;;;1.60;;
19889;SDS011;10107;51.198;6.824;2023-05-10T17:40:53;2.45;;;1.90;;
19889;SDS011;10107;51.198;6.824;2023-05-10T17:44:56;3.33;;;2.80;;
19889;SDS011;10107;51.198;6.824;2023-05-10T17:48:57;3.63;;;2.40;;
19889;SDS011;10107;51.198;6.824;2023-05-10T17:52:59;4.07;;;2.70;;
19889;SDS011;10107;51.198;6.824;2023-05-10T17:57:03;3.38;;;2.30;;
19889;SDS011;10107;51.198;6.824;2023-05-10T18:01:06;2.50;;;2.00;;
19889;SDS011;10107;51.198;6.824;2023-05-10T18:05:08;2.35;;;2.10;;
19889;SDS011;10107;51.198;6.824;2023-05-10T18:09:11;1.88;;;1.52;;
19889;SDS011;10107;51.198;6.824;2023-05-10T18:13:13;2.13;;;1.90;;
19889;SDS011;10107;51.198;6.824;2023-05-10T18:17:16;3.05;;;2.58;;
19889;SDS011;10107;51.198;6.824;2023-05-10T18:21:18;2.40;;;2.15;;
19889;SDS011;10107;51.198;6.824;2023-05-10T18:25:21;2.97;;;2.60;;
19889;SDS011;10107;51.198;6.824;2023-05-10T18:29:22;2.33;;;2.13;;
19889;SDS011;10107;51.198;6.824;2023-05-10T18:33:26;2.70;;;2.10;;
19889;SDS011;10107;51.198;6.824;2023-05-10T18:37:28;2.00;;;1.80;;
19889;SDS011;10107;51.198;6.824;2023-05-10T18:41:29;2.63;;;2.42;;
19889;SDS011;10107;51.198;6.824;2023-05-10T18:45:32;2.38;;;1.88;;
19889;SDS011;10107;51.198;6.824;2023-05-10T18:49:35;2.85;;;2.20;;
19889;SDS011;10107;51.198;6.824;2023-05-10T18:53:38;3.92;;;3.05;;
19889;SDS011;10107;51.198;6.824;2023-05-10T18:57:40;3.30;;;2.03;;
19889;SDS011;10107;51.198;6.824;2023-05-10T19:01:42;2.88;;;2.42;;
19889;SDS011;10107;51.198;6.824;2023-05-10T19:05:45;3.30;;;2.35;;
19889;SDS011;10107;51.198;6.824;2023-05-10T19:09:48;2.75;;;1.90;;
19889;SDS011;10107;51.198;6.824;2023-05-10T19:13:50;3.47;;;2.40;;
19889;SDS011;10107;51.198;6.824;2023-05-10T19:18:00;3.53;;;2.58;;
19889;SDS011;10107;51.198;6.824;2023-05-10T19:22:02;3.90;;;3.08;;
19889;SDS011;10107;51.198;6.824;2023-05-10T19:26:04;3.20;;;2.80;;
19889;SDS011;10107;51.198;6.824;2023-05-10T19:30:06;3.65;;;2.72;;
19889;SDS011;10107;51.198;6.824;2023-05-10T19:34:10;2.53;;;2.33;;
19889;SDS011;10107;51.198;6.824;2023-05-10T19:38:12;4.22;;;3.65;;
19889;SDS011;10107;51.198;6.824;2023-05-10T19:42:13;4.22;;;3.35;;
19889;SDS011;10107;51.198;6.824;2023-05-10T19:46:15;4.43;;;3.55;;
19889;SDS011;10107;51.198;6.824;2023-05-10T19:50:19;5.20;;;4.13;;
19889;SDS011;10107;51.198;6.824;2023-05-10T19:54:21;4.55;;;4.05;;
19889;SDS011;10107;51.198;6.824;2023-05-10T19:58:22;4.60;;;3.88;;
19889;SDS011;10107;51.198;6.824;2023-05-10T20:02:24;6.95;;;4.35;;
19889;SDS011;10107;51.198;6.824;2023-05-10T20:06:28;5.32;;;3.88;;
19889;SDS011;10107;51.198;6.824;2023-05-10T20:10:31;5.57;;;3.80;;
19889;SDS011;10107;51.198;6.824;2023-05-10T20:14:33;5.50;;;4.63;;
19889;SDS011;10107;51.198;6.824;2023-05-10T20:18:35;5.38;;;4.63;;
19889;SDS011;10107;51.198;6.824;2023-05-10T20:22:38;9.38;;;5.40;;
19889;SDS011;10107;51.198;6.824;2023-05-10T20:26:40;6.95;;;5.05;;
19889;SDS011;10107;51.198;6.824;2023-05-10T20:30:42;7.78;;;5.07;;
19889;SDS011;10107;51.198;6.824;2023-05-10T20:34:44;7.32;;;5.15;;
19889;SDS011;10107;51.198;6.824;2023-05-10T20:38:47;6.80;;;4.70;;
19889;SDS011;10107;51.198;6.824;2023-05-10T20:42:49;6.07;;;4.47;;
19889;SDS011;10107;51.198;6.824;2023-05-10T20:46:53;8.00;;;5.32;;
19889;SDS011;10107;51.198;6.824;2023-05-10T20:50:55;6.15;;;4.60;;
19889;SDS011;10107;51.198;6.824;2023-05-10T20:54:58;5.80;;;4.80;;
19889;SDS011;10107;51.198;6.824;2023-05-10T20:59:00;7.15;;;5.07;;
19889;SDS011;10107;51.198;6.824;2023-05-10T21:03:02;8.10;;;5.53;;
19889;SDS011;10107;51.198;6.824;2023-05-10T21:07:04;7.70;;;5.75;;
19889;SDS011;10107;51.198;6.824;2023-05-10T21:11:07;8.77;;;5.50;;
19889;SDS011;10107;51.198;6.824;2023-05-10T21:15:10;7.05;;;5.47;;
19889;SDS011;10107;51.198;6.824;2023-05-10T21:19:12;7.15;;;5.57;;
19889;SDS011;10107;51.198;6.824;2023-05-10T21:23:14;7.10;;;5.25;;
19889;SDS011;10107;51.198;6.824;2023-05-10T21:27:17;7.97;;;5.63;;
19889;SDS011;10107;51.198;6.824;2023-05-10T21:31:19;9.10;;;5.80;;
19889;SDS011;10107;51.198;6.824;2023-05-10T21:35:20;8.15;;;5.25;;
19889;SDS011;10107;51.198;6.824;2023-05-10T21:39:22;7.97;;;5.53;;
19889;SDS011;10107;51.198;6.824;2023-05-10T21:43:25;7.63;;;5.90;;
19889;SDS011;10107;51.198;6.824;2023-05-10T21:47:27;8.27;;;5.82;;
19889;SDS011;10107;51.198;6.824;2023-05-10T21:51:28;7.22;;;5.53;;
19889;SDS011;10107;51.198;6.824;2023-05-10T21:55:30;9.05;;;5.50;;
19889;SDS011;10107;51.198;6.824;2023-05-10T21:59:34;8.50;;;5.88;;
19889;SDS011;10107;51.198;6.824;2023-05-10T22:03:36;6.53;;;4.13;;
19889;SDS011;10107;51.198;6.824;2023-05-10T22:07:38;9.52;;;5.82;;
19889;SDS011;10107;51.198;6.824;2023-05-10T22:11:40;10.60;;;6.25;;
19889;SDS011;10107;51.198;6.824;2023-05-10T22:15:43;8.85;;;6.53;;
19889;SDS011;10107;51.198;6.824;2023-05-10T22:19:45;9.45;;;6.97;;
19889;SDS011;10107;51.198;6.824;2023-05-10T22:23:46;9.50;;;6.63;;
19889;SDS011;10107;51.198;6.824;2023-05-10T22:27:48;15.00;;;9.48;;
19889;SDS011;10107;51.198;6.824;2023-05-10T22:31:51;12.18;;;8.20;;
19889;SDS011;10107;51.198;6.824;2023-05-10T22:35:53;8.47;;;5.73;;
19889;SDS011;10107;51.198;6.824;2023-05-10T22:39:55;12.85;;;8.40;;
19889;SDS011;10107;51.198;6.824;2023-05-10T22:43:56;16.17;;;9.75;;
19889;SDS011;10107;51.198;6.824;2023-05-10T22:48:00;12.18;;;8.05;;
19889;SDS011;10107;51.198;6.824;2023-05-10T22:52:04;11.18;;;7.90;;
19889;SDS011;10107;51.198;6.824;2023-05-10T22:56:06;17.08;;;9.45;;
19889;SDS011;10107;51.198;6.824;2023-05-10T23:00:09;11.05;;;8.35;;
19889;SDS011;10107;51.198;6.824;2023-05-10T23:04:12;7.63;;;5.43;;
19889;SDS011;10107;51.198;6.824;2023-05-10T23:08:14;13.27;;;8.98;;
19889;SDS011;10107;51.198;6.824;2023-05-10T23:12:16;14.82;;;9.45;;
19889;SDS011;10107;51.198;6.824;2023-05-10T23:16:18;15.98;;;9.85;;
19889;SDS011;10107;51.198;6.824;2023-05-10T23:20:21;19.20;;;11.73;;
19889;SDS011;10107;51.198;6.824;2023-05-10T23:24:23;18.05;;;11.35;;
19889;SDS011;10107;51.198;6.824;2023-05-10T23:28:25;16.25;;;10.73;;
19889;SDS011;10107;51.198;6.824;2023-05-10T23:32:27;14.52;;;10.07;;
19889;SDS011;10107;51.198;6.824;2023-05-10T23:36:30;15.82;;;10.90;;
19889;SDS011;10107;51.198;6.824;2023-05-10T23:40:34;18.55;;;11.93;;
19889;SDS011;10107;51.198;6.824;2023-05-10T23:44:35;17.50;;;10.70;;
19889;SDS011;10107;51.198;6.824;2023-05-10T23:48:37;13.15;;;9.27;;
19889;SDS011;10107;51.198;6.824;2023-05-10T23:52:40;19.20;;;11.88;;
19889;SDS011;10107;51.198;6.824;2023-05-10T23:56:42;19.60;;;12.97;;
